sensor_id;sensor_type;location;lat;lon;timestamp;temperature;humidity
262;DHT22;114;48.260;10.988;2023-09-19T00:01:13;16.20;1.00
262;DHT22;114;48.260;10.988;2023-09-19T00:03:40;16.20;1.00
262;DHT22;114;48.260;10.988;2023-09-19T00:06:07;16.10;1.00
262;DHT22;114;48.260;10.988;2023-09-19T00:08:34;16.00;1.00
262;DHT22;114;48.260;10.988;2023-09-19T00:11:00;16.00;1.00
262;DHT22;114;48.260;10.988;2023-09-19T00:13:34;16.00;1.00
262;DHT22;114;48.260;10.988;2023-09-19T00:16:08;16.10;1.00
262;DHT22;114;48.260;10.988;2023-09-19T00:18:38;15.90;1.00
262;DHT22;114;48.260;10.988;2023-09-19T00:21:04;15.90;1.00
262;DHT22;114;48.260;10.988;2023-09-19T00:23:30;15.80;1.00
262;DHT22;114;48.260;10.988;2023-09-19T00:26:00;15.90;1.00
262;DHT22;114;48.260;10.988;2023-09-19T00:28:29;16.00;1.00
262;DHT22;114;48.260;10.988;2023-09-19T00:30:55;16.00;1.00
262;DHT22;114;48.260;10.988;2023-09-19T00:33:21;15.90;1.00
262;DHT22;114;48.260;10.988;2023-09-19T00:35:49;15.90;1.00
262;DHT22;114;48.260;10.988;2023-09-19T00:38:14;15.90;1.00
262;DHT22;114;48.260;10.988;2023-09-19T00:40:46;15.90;1.00
262;DHT22;114;48.260;10.988;2023-09-19T00:43:12;15.90;1.00
262;DHT22;114;48.260;10.988;2023-09-19T00:45:42;16.00;1.00
262;DHT22;114;48.260;10.988;2023-09-19T00:48:09;16.10;1.00
262;DHT22;114;48.260;10.988;2023-09-19T00:50:35;16.10;1.00
262;DHT22;114;48.260;10.988;2023-09-19T00:53:02;16.10;1.00
262;DHT22;114;48.260;10.988;2023-09-19T00:55:34;16.20;1.00
262;DHT22;114;48.260;10.988;2023-09-19T00:58:00;16.30;1.00
262;DHT22;114;48.260;10.988;2023-09-19T01:00:26;16.20;1.00
262;DHT22;114;48.260;10.988;2023-09-19T01:02:52;16.30;1.00
262;DHT22;114;48.260;10.988;2023-09-19T01:05:18;16.30;1.00
262;DHT22;114;48.260;10.988;2023-09-19T01:07:44;16.30;1.00
262;DHT22;114;48.260;10.988;2023-09-19T01:10:12;16.20;1.00
262;DHT22;114;48.260;10.988;2023-09-19T01:18:02;16.10;1.00
262;DHT22;114;48.260;10.988;2023-09-19T01:20:52;16.10;1.00
262;DHT22;114;48.260;10.988;2023-09-19T01:31:59;16.20;1.00
262;DHT22;114;48.260;10.988;2023-09-19T01:34:44;16.20;1.00
262;DHT22;114;48.260;10.988;2023-09-19T01:37:11;16.20;1.00
262;DHT22;114;48.260;10.988;2023-09-19T01:39:36;16.20;1.00
262;DHT22;114;48.260;10.988;2023-09-19T01:42:29;16.10;1.00
262;DHT22;114;48.260;10.988;2023-09-19T01:45:15;16.20;1.00
262;DHT22;114;48.260;10.988;2023-09-19T01:47:59;16.20;1.00
262;DHT22;114;48.260;10.988;2023-09-19T01:50:42;16.20;1.00
262;DHT22;114;48.260;10.988;2023-09-19T01:53:35;16.20;1.00
262;DHT22;114;48.260;10.988;2023-09-19T01:56:05;16.10;1.00
262;DHT22;114;48.260;10.988;2023-09-19T01:58:48;16.10;1.00
262;DHT22;114;48.260;10.988;2023-09-19T02:01:20;16.10;1.00
262;DHT22;114;48.260;10.988;2023-09-19T02:03:50;16.10;1.00
262;DHT22;114;48.260;10.988;2023-09-19T02:06:17;16.00;1.00
262;DHT22;114;48.260;10.988;2023-09-19T02:08:44;16.10;1.00
262;DHT22;114;48.260;10.988;2023-09-19T02:11:11;16.00;1.00
262;DHT22;114;48.260;10.988;2023-09-19T02:13:38;16.10;1.00
262;DHT22;114;48.260;10.988;2023-09-19T02:16:05;16.10;1.00
262;DHT22;114;48.260;10.988;2023-09-19T02:18:31;16.00;1.00
262;DHT22;114;48.260;10.988;2023-09-19T02:21:03;16.10;1.00
262;DHT22;114;48.260;10.988;2023-09-19T02:23:37;16.00;1.00
262;DHT22;114;48.260;10.988;2023-09-19T02:26:04;16.00;1.00
262;DHT22;114;48.260;10.988;2023-09-19T02:28:30;16.00;1.00
262;DHT22;114;48.260;10.988;2023-09-19T02:30:57;15.90;1.00
262;DHT22;114;48.260;10.988;2023-09-19T02:33:23;15.80;1.00
262;DHT22;114;48.260;10.988;2023-09-19T02:35:49;15.80;1.00
262;DHT22;114;48.260;10.988;2023-09-19T02:38:15;15.70;1.00
262;DHT22;114;48.260;10.988;2023-09-19T02:40:46;15.70;1.00
262;DHT22;114;48.260;10.988;2023-09-19T02:43:12;15.70;1.00
262;DHT22;114;48.260;10.988;2023-09-19T02:45:37;15.70;1.00
262;DHT22;114;48.260;10.988;2023-09-19T02:48:04;15.70;1.00
262;DHT22;114;48.260;10.988;2023-09-19T02:50:31;15.70;1.00
262;DHT22;114;48.260;10.988;2023-09-19T02:52:57;15.80;1.00
262;DHT22;114;48.260;10.988;2023-09-19T02:55:23;15.80;1.00
262;DHT22;114;48.260;10.988;2023-09-19T02:57:50;15.80;1.00
262;DHT22;114;48.260;10.988;2023-09-19T03:00:17;15.80;1.00
262;DHT22;114;48.260;10.988;2023-09-19T03:02:50;15.80;1.00
262;DHT22;114;48.260;10.988;2023-09-19T03:05:16;15.70;1.00
262;DHT22;114;48.260;10.988;2023-09-19T03:07:42;15.80;1.00
262;DHT22;114;48.260;10.988;2023-09-19T03:10:09;15.80;1.00
262;DHT22;114;48.260;10.988;2023-09-19T03:12:35;15.80;1.00
262;DHT22;114;48.260;10.988;2023-09-19T03:15:01;15.80;1.00
262;DHT22;114;48.260;10.988;2023-09-19T03:17:27;15.80;1.00
262;DHT22;114;48.260;10.988;2023-09-19T03:19:53;15.80;1.00
262;DHT22;114;48.260;10.988;2023-09-19T03:22:19;15.80;1.00
262;DHT22;114;48.260;10.988;2023-09-19T03:24:46;15.70;1.00
262;DHT22;114;48.260;10.988;2023-09-19T03:27:12;15.70;1.00
262;DHT22;114;48.260;10.988;2023-09-19T03:29:41;15.70;1.00
262;DHT22;114;48.260;10.988;2023-09-19T03:32:08;15.70;1.00
262;DHT22;114;48.260;10.988;2023-09-19T03:34:39;15.80;1.00
262;DHT22;114;48.260;10.988;2023-09-19T03:37:09;15.80;1.00
262;DHT22;114;48.260;10.988;2023-09-19T03:39:35;15.80;1.00
262;DHT22;114;48.260;10.988;2023-09-19T03:42:02;15.80;1.00
262;DHT22;114;48.260;10.988;2023-09-19T03:44:32;15.90;1.00
262;DHT22;114;48.260;10.988;2023-09-19T03:46:58;15.90;1.00
262;DHT22;114;48.260;10.988;2023-09-19T03:49:24;15.90;1.00
262;DHT22;114;48.260;10.988;2023-09-19T03:51:50;15.90;1.00
262;DHT22;114;48.260;10.988;2023-09-19T03:54:15;16.00;1.00
262;DHT22;114;48.260;10.988;2023-09-19T03:56:42;16.00;1.00
262;DHT22;114;48.260;10.988;2023-09-19T03:59:09;16.10;1.00
262;DHT22;114;48.260;10.988;2023-09-19T04:01:35;16.10;1.00
262;DHT22;114;48.260;10.988;2023-09-19T04:04:00;16.10;1.00
262;DHT22;114;48.260;10.988;2023-09-19T04:06:34;16.10;1.00
262;DHT22;114;48.260;10.988;2023-09-19T04:09:01;16.20;1.00
262;DHT22;114;48.260;10.988;2023-09-19T04:11:27;16.20;1.00
262;DHT22;114;48.260;10.988;2023-09-19T04:13:53;16.20;1.00
262;DHT22;114;48.260;10.988;2023-09-19T04:16:19;16.20;1.00
262;DHT22;114;48.260;10.988;2023-09-19T04:18:45;16.20;1.00
262;DHT22;114;48.260;10.988;2023-09-19T04:21:10;16.20;1.00
262;DHT22;114;48.260;10.988;2023-09-19T04:23:36;16.20;1.00
262;DHT22;114;48.260;10.988;2023-09-19T04:26:02;16.20;1.00
262;DHT22;114;48.260;10.988;2023-09-19T04:28:30;16.20;1.00
262;DHT22;114;48.260;10.988;2023-09-19T04:30:57;16.10;1.00
262;DHT22;114;48.260;10.988;2023-09-19T04:33:25;16.10;1.00
262;DHT22;114;48.260;10.988;2023-09-19T04:35:52;16.10;1.00
262;DHT22;114;48.260;10.988;2023-09-19T04:38:19;16.00;1.00
262;DHT22;114;48.260;10.988;2023-09-19T04:40:45;16.00;1.00
262;DHT22;114;48.260;10.988;2023-09-19T04:43:12;16.00;1.00
262;DHT22;114;48.260;10.988;2023-09-19T04:45:39;16.00;1.00
262;DHT22;114;48.260;10.988;2023-09-19T04:48:05;16.00;1.00
262;DHT22;114;48.260;10.988;2023-09-19T04:50:34;16.10;1.00
262;DHT22;114;48.260;10.988;2023-09-19T04:53:00;16.00;1.00
262;DHT22;114;48.260;10.988;2023-09-19T04:55:26;16.00;1.00
262;DHT22;114;48.260;10.988;2023-09-19T04:57:53;16.00;1.00
262;DHT22;114;48.260;10.988;2023-09-19T05:00:23;16.00;1.00
262;DHT22;114;48.260;10.988;2023-09-19T05:02:51;16.00;1.00
262;DHT22;114;48.260;10.988;2023-09-19T05:05:17;16.00;1.00
262;DHT22;114;48.260;10.988;2023-09-19T05:07:45;16.00;1.00
262;DHT22;114;48.260;10.988;2023-09-19T05:10:11;16.00;1.00
262;DHT22;114;48.260;10.988;2023-09-19T05:12:38;16.10;1.00
262;DHT22;114;48.260;10.988;2023-09-19T05:15:04;16.10;1.00
262;DHT22;114;48.260;10.988;2023-09-19T05:17:32;16.00;1.00
262;DHT22;114;48.260;10.988;2023-09-19T05:19:58;16.10;1.00
262;DHT22;114;48.260;10.988;2023-09-19T05:22:26;16.20;1.00
262;DHT22;114;48.260;10.988;2023-09-19T05:24:52;16.20;1.00
262;DHT22;114;48.260;10.988;2023-09-19T05:27:19;16.20;1.00
262;DHT22;114;48.260;10.988;2023-09-19T05:29:46;16.20;1.00
262;DHT22;114;48.260;10.988;2023-09-19T05:32:12;16.30;1.00
262;DHT22;114;48.260;10.988;2023-09-19T05:34:38;16.20;1.00
262;DHT22;114;48.260;10.988;2023-09-19T05:37:05;16.20;1.00
262;DHT22;114;48.260;10.988;2023-09-19T05:39:33;16.10;1.00
262;DHT22;114;48.260;10.988;2023-09-19T05:41:59;16.10;1.00
262;DHT22;114;48.260;10.988;2023-09-19T05:44:28;16.00;1.00
262;DHT22;114;48.260;10.988;2023-09-19T05:46:54;16.10;1.00
262;DHT22;114;48.260;10.988;2023-09-19T05:49:22;16.10;1.00
262;DHT22;114;48.260;10.988;2023-09-19T05:51:50;16.10;1.00
262;DHT22;114;48.260;10.988;2023-09-19T05:54:19;16.00;1.00
262;DHT22;114;48.260;10.988;2023-09-19T05:56:45;15.90;1.00
262;DHT22;114;48.260;10.988;2023-09-19T05:59:12;15.80;1.00
262;DHT22;114;48.260;10.988;2023-09-19T06:01:44;15.80;1.00
262;DHT22;114;48.260;10.988;2023-09-19T06:04:09;15.70;1.00
262;DHT22;114;48.260;10.988;2023-09-19T06:06:35;15.70;1.00
262;DHT22;114;48.260;10.988;2023-09-19T06:09:04;15.70;1.00
262;DHT22;114;48.260;10.988;2023-09-19T06:11:35;15.70;1.00
262;DHT22;114;48.260;10.988;2023-09-19T06:14:02;15.80;1.00
262;DHT22;114;48.260;10.988;2023-09-19T06:16:29;15.80;1.00
262;DHT22;114;48.260;10.988;2023-09-19T06:18:55;15.80;1.00
262;DHT22;114;48.260;10.988;2023-09-19T06:21:25;15.90;1.00
262;DHT22;114;48.260;10.988;2023-09-19T06:23:52;16.00;1.00
262;DHT22;114;48.260;10.988;2023-09-19T06:26:18;16.10;1.00
262;DHT22;114;48.260;10.988;2023-09-19T06:28:44;16.10;1.00
262;DHT22;114;48.260;10.988;2023-09-19T06:31:10;16.20;1.00
262;DHT22;114;48.260;10.988;2023-09-19T06:33:38;16.20;1.00
262;DHT22;114;48.260;10.988;2023-09-19T06:36:08;16.20;1.00
262;DHT22;114;48.260;10.988;2023-09-19T06:38:33;16.30;1.00
262;DHT22;114;48.260;10.988;2023-09-19T06:41:03;16.40;1.00
262;DHT22;114;48.260;10.988;2023-09-19T06:43:32;16.50;1.00
262;DHT22;114;48.260;10.988;2023-09-19T06:45:59;16.50;1.00
262;DHT22;114;48.260;10.988;2023-09-19T06:48:26;16.60;1.00
262;DHT22;114;48.260;10.988;2023-09-19T06:50:56;16.60;1.00
262;DHT22;114;48.260;10.988;2023-09-19T06:53:24;16.70;1.00
262;DHT22;114;48.260;10.988;2023-09-19T06:55:51;16.80;1.00
262;DHT22;114;48.260;10.988;2023-09-19T06:58:17;16.80;1.00
262;DHT22;114;48.260;10.988;2023-09-19T07:00:42;16.90;1.00
262;DHT22;114;48.260;10.988;2023-09-19T07:03:09;16.90;1.00
262;DHT22;114;48.260;10.988;2023-09-19T07:05:37;17.00;1.00
262;DHT22;114;48.260;10.988;2023-09-19T07:08:05;17.10;1.00
262;DHT22;114;48.260;10.988;2023-09-19T07:10:36;17.10;1.00
262;DHT22;114;48.260;10.988;2023-09-19T07:13:03;17.10;1.00
262;DHT22;114;48.260;10.988;2023-09-19T07:15:32;17.20;1.00
262;DHT22;114;48.260;10.988;2023-09-19T07:18:01;17.30;1.00
262;DHT22;114;48.260;10.988;2023-09-19T07:20:28;17.40;1.00
262;DHT22;114;48.260;10.988;2023-09-19T07:22:57;17.30;1.00
262;DHT22;114;48.260;10.988;2023-09-19T07:25:25;17.40;1.00
262;DHT22;114;48.260;10.988;2023-09-19T07:27:51;17.40;1.00
262;DHT22;114;48.260;10.988;2023-09-19T07:30:17;17.30;1.00
262;DHT22;114;48.260;10.988;2023-09-19T07:32:43;17.30;1.00
262;DHT22;114;48.260;10.988;2023-09-19T07:35:08;17.20;1.00
262;DHT22;114;48.260;10.988;2023-09-19T07:37:35;17.20;1.00
262;DHT22;114;48.260;10.988;2023-09-19T07:40:02;17.00;1.00
262;DHT22;114;48.260;10.988;2023-09-19T07:42:35;16.90;1.00
262;DHT22;114;48.260;10.988;2023-09-19T07:45:02;17.00;1.00
262;DHT22;114;48.260;10.988;2023-09-19T07:47:29;17.20;1.00
262;DHT22;114;48.260;10.988;2023-09-19T07:49:55;17.30;1.00
262;DHT22;114;48.260;10.988;2023-09-19T07:52:21;17.40;1.00
262;DHT22;114;48.260;10.988;2023-09-19T07:54:48;17.50;1.00
262;DHT22;114;48.260;10.988;2023-09-19T07:57:15;17.70;1.00
262;DHT22;114;48.260;10.988;2023-09-19T07:59:41;17.80;1.00
262;DHT22;114;48.260;10.988;2023-09-19T08:02:08;17.90;1.00
262;DHT22;114;48.260;10.988;2023-09-19T08:04:35;18.20;1.00
262;DHT22;114;48.260;10.988;2023-09-19T08:07:02;18.40;1.00
262;DHT22;114;48.260;10.988;2023-09-19T08:09:30;18.50;1.00
262;DHT22;114;48.260;10.988;2023-09-19T08:11:59;18.30;1.00
262;DHT22;114;48.260;10.988;2023-09-19T08:14:28;18.20;1.00
262;DHT22;114;48.260;10.988;2023-09-19T08:16:58;18.20;1.00
262;DHT22;114;48.260;10.988;2023-09-19T08:19:25;18.30;1.00
262;DHT22;114;48.260;10.988;2023-09-19T08:21:55;18.40;1.00
262;DHT22;114;48.260;10.988;2023-09-19T08:24:30;18.50;1.00
262;DHT22;114;48.260;10.988;2023-09-19T08:26:57;18.80;1.00
262;DHT22;114;48.260;10.988;2023-09-19T08:29:24;18.90;1.00
262;DHT22;114;48.260;10.988;2023-09-19T08:31:56;19.00;1.00
262;DHT22;114;48.260;10.988;2023-09-19T08:34:25;19.10;1.00
262;DHT22;114;48.260;10.988;2023-09-19T08:36:52;19.10;1.00
262;DHT22;114;48.260;10.988;2023-09-19T08:39:25;19.20;1.00
262;DHT22;114;48.260;10.988;2023-09-19T08:42:00;19.20;1.00
262;DHT22;114;48.260;10.988;2023-09-19T08:44:28;19.40;1.00
262;DHT22;114;48.260;10.988;2023-09-19T08:47:08;19.60;1.00
262;DHT22;114;48.260;10.988;2023-09-19T08:52:32;19.90;1.00
262;DHT22;114;48.260;10.988;2023-09-19T08:55:03;19.90;1.00
262;DHT22;114;48.260;10.988;2023-09-19T08:57:36;19.90;1.00
262;DHT22;114;48.260;10.988;2023-09-19T09:00:08;20.00;1.00
262;DHT22;114;48.260;10.988;2023-09-19T09:02:38;20.10;1.00
262;DHT22;114;48.260;10.988;2023-09-19T09:05:09;20.50;1.00
262;DHT22;114;48.260;10.988;2023-09-19T09:07:40;20.40;1.00
262;DHT22;114;48.260;10.988;2023-09-19T09:10:07;20.20;1.00
262;DHT22;114;48.260;10.988;2023-09-19T09:12:34;19.80;1.00
262;DHT22;114;48.260;10.988;2023-09-19T09:15:03;19.70;1.00
262;DHT22;114;48.260;10.988;2023-09-19T09:17:29;19.80;1.00
262;DHT22;114;48.260;10.988;2023-09-19T09:19:56;19.80;1.00
262;DHT22;114;48.260;10.988;2023-09-19T09:22:22;20.00;1.00
262;DHT22;114;48.260;10.988;2023-09-19T09:24:57;20.10;1.00
262;DHT22;114;48.260;10.988;2023-09-19T09:27:30;20.10;1.00
262;DHT22;114;48.260;10.988;2023-09-19T09:29:58;19.90;1.00
262;DHT22;114;48.260;10.988;2023-09-19T09:32:28;19.60;1.00
262;DHT22;114;48.260;10.988;2023-09-19T09:34:55;19.70;1.00
262;DHT22;114;48.260;10.988;2023-09-19T09:37:22;19.80;1.00
262;DHT22;114;48.260;10.988;2023-09-19T09:39:52;19.90;1.00
262;DHT22;114;48.260;10.988;2023-09-19T09:42:34;20.20;1.00
262;DHT22;114;48.260;10.988;2023-09-19T09:45:18;20.20;1.00
262;DHT22;114;48.260;10.988;2023-09-19T09:48:02;20.60;1.00
262;DHT22;114;48.260;10.988;2023-09-19T09:50:47;20.90;1.00
262;DHT22;114;48.260;10.988;2023-09-19T09:53:25;20.60;1.00
262;DHT22;114;48.260;10.988;2023-09-19T09:56:05;20.40;1.00
262;DHT22;114;48.260;10.988;2023-09-19T09:58:36;20.10;1.00
262;DHT22;114;48.260;10.988;2023-09-19T10:01:04;19.90;1.00
262;DHT22;114;48.260;10.988;2023-09-19T10:03:38;19.90;1.00
262;DHT22;114;48.260;10.988;2023-09-19T10:06:10;20.00;1.00
262;DHT22;114;48.260;10.988;2023-09-19T10:09:08;20.30;1.00
262;DHT22;114;48.260;10.988;2023-09-19T10:11:44;20.70;1.00
262;DHT22;114;48.260;10.988;2023-09-19T10:14:16;20.50;1.00
262;DHT22;114;48.260;10.988;2023-09-19T10:16:46;20.40;1.00
262;DHT22;114;48.260;10.988;2023-09-19T10:19:23;20.40;1.00
262;DHT22;114;48.260;10.988;2023-09-19T10:21:50;20.30;1.00
262;DHT22;114;48.260;10.988;2023-09-19T10:24:18;20.20;1.00
262;DHT22;114;48.260;10.988;2023-09-19T10:26:45;20.30;1.00
262;DHT22;114;48.260;10.988;2023-09-19T10:29:13;20.30;1.00
262;DHT22;114;48.260;10.988;2023-09-19T10:31:42;20.30;1.00
262;DHT22;114;48.260;10.988;2023-09-19T10:34:14;20.20;1.00
262;DHT22;114;48.260;10.988;2023-09-19T10:36:44;20.00;1.00
262;DHT22;114;48.260;10.988;2023-09-19T10:39:11;19.80;1.00
262;DHT22;114;48.260;10.988;2023-09-19T10:41:39;19.80;1.00
262;DHT22;114;48.260;10.988;2023-09-19T10:44:05;19.80;1.00
262;DHT22;114;48.260;10.988;2023-09-19T10:46:34;20.00;1.00
262;DHT22;114;48.260;10.988;2023-09-19T10:49:00;20.00;1.00
262;DHT22;114;48.260;10.988;2023-09-19T10:51:30;19.90;1.00
262;DHT22;114;48.260;10.988;2023-09-19T10:54:12;19.80;1.00
262;DHT22;114;48.260;10.988;2023-09-19T10:56:43;19.60;1.00
262;DHT22;114;48.260;10.988;2023-09-19T10:59:16;19.60;1.00
262;DHT22;114;48.260;10.988;2023-09-19T11:01:44;19.70;1.00
262;DHT22;114;48.260;10.988;2023-09-19T11:04:29;19.80;1.00
262;DHT22;114;48.260;10.988;2023-09-19T11:07:07;19.90;1.00
262;DHT22;114;48.260;10.988;2023-09-19T11:09:55;20.50;1.00
262;DHT22;114;48.260;10.988;2023-09-19T11:26:48;21.00;1.00
262;DHT22;114;48.260;10.988;2023-09-19T11:31:52;22.10;1.00
262;DHT22;114;48.260;10.988;2023-09-19T11:37:03;22.00;1.00
262;DHT22;114;48.260;10.988;2023-09-19T11:39:30;21.30;1.00
262;DHT22;114;48.260;10.988;2023-09-19T11:41:56;20.80;1.00
262;DHT22;114;48.260;10.988;2023-09-19T11:44:33;20.60;1.00
262;DHT22;114;48.260;10.988;2023-09-19T11:47:00;20.30;1.00
262;DHT22;114;48.260;10.988;2023-09-19T11:49:30;19.90;1.00
262;DHT22;114;48.260;10.988;2023-09-19T11:52:01;19.70;1.00
262;DHT22;114;48.260;10.988;2023-09-19T11:54:31;19.40;1.00
262;DHT22;114;48.260;10.988;2023-09-19T11:56:57;19.20;1.00
262;DHT22;114;48.260;10.988;2023-09-19T11:59:25;19.50;1.00
262;DHT22;114;48.260;10.988;2023-09-19T12:02:05;20.80;1.00
262;DHT22;114;48.260;10.988;2023-09-19T12:04:43;21.90;1.00
262;DHT22;114;48.260;10.988;2023-09-19T12:07:16;23.20;1.00
262;DHT22;114;48.260;10.988;2023-09-19T12:09:48;24.00;1.00
262;DHT22;114;48.260;10.988;2023-09-19T12:12:25;24.60;1.00
262;DHT22;114;48.260;10.988;2023-09-19T12:14:53;25.20;1.00
262;DHT22;114;48.260;10.988;2023-09-19T12:17:19;25.00;1.00
262;DHT22;114;48.260;10.988;2023-09-19T12:19:53;24.90;1.00
262;DHT22;114;48.260;10.988;2023-09-19T12:22:18;25.00;1.00
262;DHT22;114;48.260;10.988;2023-09-19T12:24:46;25.70;1.00
262;DHT22;114;48.260;10.988;2023-09-19T12:27:12;25.60;1.00
262;DHT22;114;48.260;10.988;2023-09-19T12:29:47;26.20;1.00
262;DHT22;114;48.260;10.988;2023-09-19T12:32:17;26.90;1.00
262;DHT22;114;48.260;10.988;2023-09-19T12:34:51;27.70;1.00
262;DHT22;114;48.260;10.988;2023-09-19T12:37:18;27.70;1.00
262;DHT22;114;48.260;10.988;2023-09-19T12:39:49;27.20;1.00
262;DHT22;114;48.260;10.988;2023-09-19T12:42:19;26.90;1.00
262;DHT22;114;48.260;10.988;2023-09-19T12:44:47;27.30;1.00
262;DHT22;114;48.260;10.988;2023-09-19T12:47:17;27.70;1.00
262;DHT22;114;48.260;10.988;2023-09-19T12:50:08;27.00;1.00
262;DHT22;114;48.260;10.988;2023-09-19T12:52:46;26.20;1.00
262;DHT22;114;48.260;10.988;2023-09-19T12:58:09;25.90;1.00
262;DHT22;114;48.260;10.988;2023-09-19T13:00:39;25.50;1.00
262;DHT22;114;48.260;10.988;2023-09-19T13:03:29;25.10;1.00
262;DHT22;114;48.260;10.988;2023-09-19T13:05:58;25.10;1.00
262;DHT22;114;48.260;10.988;2023-09-19T13:08:28;24.80;1.00
262;DHT22;114;48.260;10.988;2023-09-19T13:11:15;24.70;1.00
262;DHT22;114;48.260;10.988;2023-09-19T13:13:49;23.90;1.00
262;DHT22;114;48.260;10.988;2023-09-19T13:16:19;23.30;1.00
262;DHT22;114;48.260;10.988;2023-09-19T13:18:52;23.00;1.00
262;DHT22;114;48.260;10.988;2023-09-19T13:21:32;22.60;1.00
262;DHT22;114;48.260;10.988;2023-09-19T13:24:22;22.20;1.00
262;DHT22;114;48.260;10.988;2023-09-19T13:26:51;22.60;1.00
262;DHT22;114;48.260;10.988;2023-09-19T13:29:17;22.40;1.00
262;DHT22;114;48.260;10.988;2023-09-19T13:31:51;22.20;1.00
262;DHT22;114;48.260;10.988;2023-09-19T13:34:19;22.20;1.00
262;DHT22;114;48.260;10.988;2023-09-19T13:36:45;22.40;1.00
262;DHT22;114;48.260;10.988;2023-09-19T13:39:14;22.70;1.00
262;DHT22;114;48.260;10.988;2023-09-19T13:41:41;23.80;1.00
262;DHT22;114;48.260;10.988;2023-09-19T13:44:08;25.60;1.00
262;DHT22;114;48.260;10.988;2023-09-19T13:46:36;27.30;1.00
262;DHT22;114;48.260;10.988;2023-09-19T13:49:02;27.20;1.00
262;DHT22;114;48.260;10.988;2023-09-19T13:51:32;28.00;1.00
262;DHT22;114;48.260;10.988;2023-09-19T13:53:58;28.00;1.00
262;DHT22;114;48.260;10.988;2023-09-19T13:56:25;27.60;1.00
262;DHT22;114;48.260;10.988;2023-09-19T13:58:54;27.40;1.00
262;DHT22;114;48.260;10.988;2023-09-19T14:01:20;28.10;1.00
262;DHT22;114;48.260;10.988;2023-09-19T14:03:46;28.60;1.00
262;DHT22;114;48.260;10.988;2023-09-19T14:06:15;28.90;1.00
262;DHT22;114;48.260;10.988;2023-09-19T14:08:41;27.50;1.00
262;DHT22;114;48.260;10.988;2023-09-19T14:11:10;26.90;1.00
262;DHT22;114;48.260;10.988;2023-09-19T14:13:36;26.70;1.00
262;DHT22;114;48.260;10.988;2023-09-19T14:16:06;26.70;1.00
262;DHT22;114;48.260;10.988;2023-09-19T14:18:33;26.90;1.00
262;DHT22;114;48.260;10.988;2023-09-19T14:21:01;26.70;1.00
262;DHT22;114;48.260;10.988;2023-09-19T14:23:28;26.90;1.00
262;DHT22;114;48.260;10.988;2023-09-19T14:25:54;27.40;1.00
262;DHT22;114;48.260;10.988;2023-09-19T14:28:20;27.70;1.00
262;DHT22;114;48.260;10.988;2023-09-19T14:30:45;28.50;1.00
262;DHT22;114;48.260;10.988;2023-09-19T14:33:12;28.50;1.00
262;DHT22;114;48.260;10.988;2023-09-19T14:35:37;28.40;1.00
262;DHT22;114;48.260;10.988;2023-09-19T14:38:04;29.40;1.00
262;DHT22;114;48.260;10.988;2023-09-19T14:40:30;29.30;1.00
262;DHT22;114;48.260;10.988;2023-09-19T14:42:56;28.10;1.00
262;DHT22;114;48.260;10.988;2023-09-19T14:45:22;27.70;1.00
262;DHT22;114;48.260;10.988;2023-09-19T14:47:50;27.50;1.00
262;DHT22;114;48.260;10.988;2023-09-19T14:50:18;27.60;1.00
262;DHT22;114;48.260;10.988;2023-09-19T14:52:43;28.00;1.00
262;DHT22;114;48.260;10.988;2023-09-19T14:55:09;28.30;1.00
262;DHT22;114;48.260;10.988;2023-09-19T14:57:39;28.30;1.00
262;DHT22;114;48.260;10.988;2023-09-19T15:00:06;27.70;1.00
262;DHT22;114;48.260;10.988;2023-09-19T15:02:38;27.10;1.00
262;DHT22;114;48.260;10.988;2023-09-19T15:05:06;26.80;1.00
262;DHT22;114;48.260;10.988;2023-09-19T15:07:35;25.50;1.00
262;DHT22;114;48.260;10.988;2023-09-19T15:10:03;24.60;1.00
262;DHT22;114;48.260;10.988;2023-09-19T15:12:28;24.10;1.00
262;DHT22;114;48.260;10.988;2023-09-19T15:14:54;23.90;1.00
262;DHT22;114;48.260;10.988;2023-09-19T15:17:20;23.50;1.00
262;DHT22;114;48.260;10.988;2023-09-19T15:19:46;23.20;1.00
262;DHT22;114;48.260;10.988;2023-09-19T15:22:12;22.90;1.00
262;DHT22;114;48.260;10.988;2023-09-19T15:24:38;22.80;1.00
262;DHT22;114;48.260;10.988;2023-09-19T15:27:04;22.60;1.00
262;DHT22;114;48.260;10.988;2023-09-19T15:29:30;22.60;1.00
262;DHT22;114;48.260;10.988;2023-09-19T15:31:56;22.50;1.00
262;DHT22;114;48.260;10.988;2023-09-19T15:34:28;22.30;1.00
262;DHT22;114;48.260;10.988;2023-09-19T15:36:54;22.20;1.00
262;DHT22;114;48.260;10.988;2023-09-19T15:39:20;22.10;1.00
262;DHT22;114;48.260;10.988;2023-09-19T15:41:48;22.10;1.00
262;DHT22;114;48.260;10.988;2023-09-19T15:44:18;22.10;1.00
262;DHT22;114;48.260;10.988;2023-09-19T15:46:45;22.00;1.00
262;DHT22;114;48.260;10.988;2023-09-19T15:49:11;21.80;1.00
262;DHT22;114;48.260;10.988;2023-09-19T15:51:37;21.60;1.00
262;DHT22;114;48.260;10.988;2023-09-19T15:54:14;21.60;1.00
262;DHT22;114;48.260;10.988;2023-09-19T15:56:44;21.50;1.00
262;DHT22;114;48.260;10.988;2023-09-19T15:59:10;21.50;1.00
262;DHT22;114;48.260;10.988;2023-09-19T16:01:38;21.60;1.00
262;DHT22;114;48.260;10.988;2023-09-19T16:04:06;21.50;1.00
262;DHT22;114;48.260;10.988;2023-09-19T16:06:34;21.50;1.00
262;DHT22;114;48.260;10.988;2023-09-19T16:09:01;21.50;1.00
262;DHT22;114;48.260;10.988;2023-09-19T16:11:30;21.50;1.00
262;DHT22;114;48.260;10.988;2023-09-19T16:13:57;21.40;1.00
262;DHT22;114;48.260;10.988;2023-09-19T16:16:25;21.40;1.00
262;DHT22;114;48.260;10.988;2023-09-19T16:18:54;21.30;1.00
262;DHT22;114;48.260;10.988;2023-09-19T16:21:32;21.20;1.00
262;DHT22;114;48.260;10.988;2023-09-19T16:24:00;21.20;1.00
262;DHT22;114;48.260;10.988;2023-09-19T16:26:26;21.10;1.00
262;DHT22;114;48.260;10.988;2023-09-19T16:28:54;21.00;1.00
262;DHT22;114;48.260;10.988;2023-09-19T16:31:26;20.90;1.00
262;DHT22;114;48.260;10.988;2023-09-19T16:33:52;20.80;1.00
262;DHT22;114;48.260;10.988;2023-09-19T16:36:19;20.70;1.00
262;DHT22;114;48.260;10.988;2023-09-19T16:38:47;20.70;1.00
262;DHT22;114;48.260;10.988;2023-09-19T16:41:18;20.70;1.00
262;DHT22;114;48.260;10.988;2023-09-19T16:43:44;20.60;1.00
262;DHT22;114;48.260;10.988;2023-09-19T16:46:11;20.50;1.00
262;DHT22;114;48.260;10.988;2023-09-19T16:48:41;20.40;1.00
262;DHT22;114;48.260;10.988;2023-09-19T16:51:12;20.40;1.00
262;DHT22;114;48.260;10.988;2023-09-19T16:53:39;20.30;1.00
262;DHT22;114;48.260;10.988;2023-09-19T16:56:07;20.20;1.00
262;DHT22;114;48.260;10.988;2023-09-19T16:58:37;20.20;1.00
262;DHT22;114;48.260;10.988;2023-09-19T17:01:06;20.10;1.00
262;DHT22;114;48.260;10.988;2023-09-19T17:03:35;20.00;1.00
262;DHT22;114;48.260;10.988;2023-09-19T17:06:01;19.80;1.00
262;DHT22;114;48.260;10.988;2023-09-19T17:08:29;19.70;1.00
262;DHT22;114;48.260;10.988;2023-09-19T17:11:05;19.60;1.00
262;DHT22;114;48.260;10.988;2023-09-19T17:13:31;19.60;1.00
262;DHT22;114;48.260;10.988;2023-09-19T17:16:15;19.50;1.00
262;DHT22;114;48.260;10.988;2023-09-19T17:18:53;19.50;1.00
262;DHT22;114;48.260;10.988;2023-09-19T17:21:20;19.30;1.00
262;DHT22;114;48.260;10.988;2023-09-19T17:23:49;19.30;1.00
262;DHT22;114;48.260;10.988;2023-09-19T17:26:15;19.10;1.00